Time;durP1;ratioP1;P1;durP2;ratioP2;P2;SDS_P1;SDS_P2;PMS_P1;PMS_P2;Temp;Humidity;BMP_temperature;BMP_pressure;BME280_temperature;BME280_humidity;BME280_pressure;Samples;Min_cycle;Max_cycle;Signal;HPM_P1;HPM_P2
2022/09/18 00:01:42;;;;;;;7.70;4.30;;;;;;;10.31;100.00;98897.81;5066300;28;20205;-82
2022/09/18 00:04:13;;;;;;;9.70;4.17;;;;;;;10.36;100.00;98901.03;5075152;28;20201;-82
2022/09/18 00:06:44;;;;;;;8.77;3.80;;;;;;;10.24;100.00;98886.81;5072190;28;20197;-81
2022/09/18 00:09:14;;;;;;;10.97;3.53;;;;;;;10.01;100.00;98890.09;5069473;28;20204;-81
2022/09/18 00:11:47;;;;;;;7.23;3.80;;;;;;;10.19;100.00;98893.31;5073816;28;20203;-81
2022/09/18 00:14:18;;;;;;;11.00;4.33;;;;;;;10.13;100.00;98897.22;5077545;28;20192;-82
2022/09/18 00:16:47;;;;;;;11.17;4.40;;;;;;;10.19;100.00;98890.66;5074889;28;20247;-82
2022/09/18 00:19:16;;;;;;;9.70;4.00;;;;;;;10.19;100.00;98898.63;5042369;28;20226;-81
2022/09/18 00:21:49;;;;;;;8.60;4.30;;;;;;;10.07;100.00;98897.63;5075196;28;20203;-80
2022/09/18 00:24:19;;;;;;;8.33;4.00;;;;;;;10.08;100.00;98899.31;5016428;28;20286;-82
2022/09/18 00:26:49;;;;;;;8.03;4.07;;;;;;;10.11;100.00;98899.13;5044011;28;20205;-82
2022/09/18 00:29:19;;;;;;;13.27;4.07;;;;;;;10.06;100.00;98906.53;5047048;28;20204;-81
2022/09/18 00:31:48;;;;;;;8.73;4.00;;;;;;;10.03;100.00;98906.69;5053765;28;20193;-82
2022/09/18 00:34:17;;;;;;;6.97;3.87;;;;;;;9.99;100.00;98905.22;5045063;28;20197;-81
2022/09/18 00:36:45;;;;;;;8.27;3.90;;;;;;;9.90;100.00;98898.72;5040799;28;20267;-81
2022/09/18 00:39:15;;;;;;;8.50;4.37;;;;;;;9.99;100.00;98906.06;5047021;28;20228;-81
2022/09/18 00:41:45;;;;;;;9.10;3.90;;;;;;;9.81;100.00;98909.06;5029456;28;20196;-81
2022/09/18 00:44:41;;;;;;;9.50;4.40;;;;;;;9.93;100.00;98916.19;5079718;28;20196;-81
2022/09/18 00:47:21;;;;;;;10.40;4.47;;;;;;;9.91;100.00;98916.31;5059455;28;20200;-81
2022/09/18 00:49:53;;;;;;;9.90;4.60;;;;;;;9.81;100.00;98914.34;5073182;28;20220;-81
2022/09/18 00:52:27;;;;;;;7.33;4.40;;;;;;;9.86;100.00;98921.06;5071778;28;20251;-81
2022/09/18 00:55:00;;;;;;;10.43;4.60;;;;;;;9.73;100.00;98920.97;5067196;28;20200;-81
2022/09/18 00:57:33;;;;;;;11.07;4.33;;;;;;;9.78;100.00;98923.34;5073428;28;20298;-81
2022/09/18 01:00:10;;;;;;;7.07;4.70;;;;;;;9.89;100.00;98927.94;5037240;28;20224;-81
2022/09/18 01:02:40;;;;;;;12.50;4.53;;;;;;;9.99;100.00;98935.16;5073856;28;20250;-81
2022/09/18 01:05:09;;;;;;;7.87;4.47;;;;;;;9.92;100.00;98933.88;5071520;28;20727;-81
2022/09/18 01:07:51;;;;;;;10.53;4.90;;;;;;;9.92;100.00;98930.38;5067916;28;20223;-81
2022/09/18 01:10:34;;;;;;;7.97;4.57;;;;;;;9.97;100.00;98923.00;5067634;28;20243;-81
2022/09/18 01:13:09;;;;;;;7.43;4.37;;;;;;;9.98;100.00;98925.53;5068840;28;20246;-81
2022/09/18 01:15:44;;;;;;;8.63;4.17;;;;;;;10.07;100.00;98918.81;5069048;28;20222;-81
2022/09/18 01:18:21;;;;;;;11.07;4.53;;;;;;;10.04;100.00;98908.44;5071132;28;20638;-81
2022/09/18 01:21:09;;;;;;;7.87;4.20;;;;;;;10.06;100.00;98914.47;5035987;28;20200;-81
2022/09/18 01:24:12;;;;;;;9.80;4.00;;;;;;;10.13;100.00;98914.88;5074322;28;20215;-81
2022/09/18 01:26:50;;;;;;;7.63;3.87;;;;;;;10.25;100.00;98908.84;5066346;28;20225;-81
2022/09/18 01:29:29;;;;;;;6.93;3.70;;;;;;;10.26;100.00;98906.09;5064747;28;20200;-81
2022/09/18 01:32:05;;;;;;;8.30;3.57;;;;;;;10.34;100.00;98891.50;5072112;28;20200;-81
2022/09/18 01:34:38;;;;;;;7.93;3.30;;;;;;;10.36;100.00;98893.06;5068849;28;20651;-81
2022/09/18 01:37:14;;;;;;;8.83;3.13;;;;;;;10.22;100.00;98883.41;5073073;28;20247;-82
2022/09/18 01:39:51;;;;;;;7.53;3.13;;;;;;;10.31;100.00;98893.38;5067475;28;20199;-81
2022/09/18 01:42:23;;;;;;;8.50;3.00;;;;;;;10.37;100.00;98880.69;5070600;28;20184;-81
2022/09/18 01:44:57;;;;;;;8.57;3.50;;;;;;;10.39;100.00;98890.22;5069068;28;20204;-81
2022/09/18 01:47:30;;;;;;;4.70;3.20;;;;;;;10.47;100.00;98885.25;5075438;28;20224;-80
2022/09/18 01:50:01;;;;;;;6.20;3.30;;;;;;;10.41;100.00;98887.47;5072172;28;20277;-81
2022/09/18 01:52:36;;;;;;;9.27;3.53;;;;;;;10.44;100.00;98896.06;5070466;28;20197;-81
2022/09/18 01:55:12;;;;;;;8.93;3.53;;;;;;;10.44;100.00;98896.06;5064957;28;20199;-81
2022/09/18 01:57:48;;;;;;;8.37;3.73;;;;;;;10.39;100.00;98899.94;5068314;28;20211;-81
2022/09/18 02:00:18;;;;;;;6.47;3.23;;;;;;;10.25;100.00;98904.38;5072830;28;20191;-81
2022/09/18 02:02:51;;;;;;;8.80;3.17;;;;;;;10.24;100.00;98913.28;5072864;28;20199;-82
2022/09/18 02:05:28;;;;;;;7.23;3.30;;;;;;;10.25;100.00;98898.25;5074035;28;20188;-81
2022/09/18 02:08:13;;;;;;;5.80;2.70;;;;;;;10.37;100.00;98902.72;5071446;28;20286;-81
2022/09/18 02:10:47;;;;;;;6.53;2.90;;;;;;;10.28;100.00;98901.53;5071522;28;20192;-81
2022/09/18 02:13:19;;;;;;;8.13;2.67;;;;;;;10.16;100.00;98893.53;5066762;28;20201;-81
2022/09/18 02:15:56;;;;;;;7.10;2.77;;;;;;;10.16;100.00;98899.66;5066656;28;20247;-81
2022/09/18 02:18:29;;;;;;;6.73;2.83;;;;;;;10.15;100.00;98886.53;5067937;28;20230;-81
2022/09/18 02:21:01;;;;;;;9.77;2.70;;;;;;;10.14;100.00;98890.16;5072768;28;20231;-81
2022/09/18 02:23:32;;;;;;;6.23;2.47;;;;;;;10.08;100.00;98890.53;5063323;28;20309;-81
2022/09/18 02:26:06;;;;;;;5.93;2.50;;;;;;;10.08;100.00;98894.03;5068571;28;20189;-81
2022/09/18 02:28:37;;;;;;;4.97;2.40;;;;;;;9.94;100.00;98889.66;5071020;28;20208;-81
2022/09/18 02:31:07;;;;;;;6.57;2.87;;;;;;;9.87;100.00;98893.66;5060742;28;20710;-81
2022/09/18 02:33:37;;;;;;;10.10;2.33;;;;;;;10.10;100.00;98902.72;4992647;28;20191;-81
2022/09/18 02:36:29;;;;;;;8.23;2.63;;;;;;;10.02;100.00;98897.91;4990358;28;20301;-81
2022/09/18 02:39:07;;;;;;;6.60;2.30;;;;;;;9.94;100.00;98896.72;4986748;28;20249;-82
2022/09/18 02:41:49;;;;;;;5.60;2.70;;;;;;;9.90;100.00;98898.72;5000201;28;20266;-82
2022/09/18 02:44:21;;;;;;;4.93;3.10;;;;;;;9.92;100.00;98891.53;5014022;28;20248;-82
2022/09/18 02:47:01;;;;;;;6.23;2.83;;;;;;;10.06;100.00;98900.38;5008615;28;20233;-82
2022/09/18 02:49:41;;;;;;;5.57;2.67;;;;;;;10.13;100.00;98893.72;5015545;28;20230;-82
2022/09/18 02:52:16;;;;;;;7.40;2.67;;;;;;;9.84;100.00;98900.91;5057852;28;20204;-81
2022/09/18 02:54:52;;;;;;;5.40;2.90;;;;;;;9.81;100.00;98890.56;5075358;28;20200;-81
2022/09/18 02:57:26;;;;;;;7.33;3.00;;;;;;;9.79;100.00;98900.38;5077254;28;20204;-82
2022/09/18 02:59:57;;;;;;;6.63;3.03;;;;;;;9.87;100.00;98898.94;5075309;28;20188;-81
2022/09/18 03:02:28;;;;;;;7.60;2.83;;;;;;;10.10;100.00;98901.88;5073915;28;20193;-81
2022/09/18 03:04:58;;;;;;;5.10;2.93;;;;;;;10.06;100.00;98906.53;5081972;28;20231;-82
2022/09/18 03:07:26;;;;;;;6.90;2.53;;;;;;;10.12;100.00;98908.75;5079642;28;20200;-81
2022/09/18 03:09:56;;;;;;;5.07;2.30;;;;;;;10.04;100.00;98901.34;5080578;28;20199;-81
2022/09/18 03:12:24;;;;;;;3.43;2.40;;;;;;;10.18;100.00;98895.13;5080173;28;20215;-82
2022/09/18 03:14:53;;;;;;;5.13;2.47;;;;;;;10.02;100.00;98897.06;5017212;28;21194;-83
2022/09/18 03:17:23;;;;;;;4.77;2.57;;;;;;;10.15;100.00;98903.28;5012870;28;20202;-82
2022/09/18 03:19:53;;;;;;;4.90;2.53;;;;;;;10.04;100.00;98892.56;5014380;28;20219;-81
2022/09/18 03:22:23;;;;;;;4.73;2.27;;;;;;;10.01;100.00;98895.38;5010180;28;20226;-81
2022/09/18 03:24:51;;;;;;;4.30;2.33;;;;;;;9.94;100.00;98897.59;5012519;28;20288;-81
2022/09/18 03:27:19;;;;;;;4.33;2.13;;;;;;;10.04;100.00;98889.91;5005793;28;20198;-81
2022/09/18 03:29:48;;;;;;;3.10;2.40;;;;;;;10.24;100.00;98897.41;5004467;28;20709;-81
2022/09/18 03:32:20;;;;;;;5.97;2.57;;;;;;;10.32;100.00;98902.16;5009204;28;20205;-81
2022/09/18 03:34:48;;;;;;;5.77;2.57;;;;;;;10.36;100.00;98894.88;4953445;28;20193;-81
2022/09/18 03:37:18;;;;;;;6.50;2.30;;;;;;;10.18;100.00;98891.63;4926267;28;20247;-81
2022/09/18 03:39:47;;;;;;;6.60;2.53;;;;;;;10.14;100.00;98898.09;4984431;28;20226;-81
2022/09/18 03:42:17;;;;;;;5.03;2.20;;;;;;;10.36;100.00;98900.16;5005123;28;20202;-81
2022/09/18 03:44:45;;;;;;;3.27;2.23;;;;;;;10.36;100.00;98906.31;5006808;28;20712;-82
2022/09/18 03:47:17;;;;;;;5.07;2.17;;;;;;;10.40;100.00;98906.94;5008253;28;20237;-82
2022/09/18 03:49:45;;;;;;;4.37;2.37;;;;;;;10.36;100.00;98906.31;5015854;28;20270;-81
2022/09/18 03:52:14;;;;;;;2.70;2.10;;;;;;;10.12;100.00;98906.09;5013572;28;20190;-81
2022/09/18 03:54:45;;;;;;;3.77;2.10;;;;;;;10.08;100.00;98901.97;5011369;28;20226;-81
2022/09/18 03:57:14;;;;;;;4.70;2.13;;;;;;;10.19;100.00;98899.47;5007359;28;20206;-82
2022/09/18 03:59:44;;;;;;;4.50;2.13;;;;;;;10.28;100.00;98900.69;5016678;28;20247;-81
2022/09/18 04:02:12;;;;;;;3.20;2.07;;;;;;;10.14;100.00;98898.09;5046467;28;20227;-81
2022/09/18 04:04:41;;;;;;;3.97;2.20;;;;;;;10.19;100.00;98903.91;5045739;28;20194;-82
2022/09/18 04:07:09;;;;;;;2.87;1.83;;;;;;;10.13;100.00;98907.78;5047817;28;20266;-81
2022/09/18 04:09:38;;;;;;;5.20;2.17;;;;;;;10.06;100.00;98914.47;5048203;28;20197;-82
2022/09/18 04:12:08;;;;;;;5.87;2.40;;;;;;;10.09;100.00;98905.47;5044115;28;20263;-81
2022/09/18 04:14:37;;;;;;;2.80;2.00;;;;;;;10.10;100.00;98897.41;5047639;28;20193;-81
2022/09/18 04:17:11;;;;;;;4.37;2.10;;;;;;;10.15;100.00;98897.97;5043635;28;20251;-82
2022/09/18 04:19:39;;;;;;;6.30;1.97;;;;;;;10.18;100.00;98897.75;4974604;28;20302;-82
2022/09/18 04:22:07;;;;;;;4.27;2.10;;;;;;;10.18;100.00;98897.75;4976427;28;20192;-81
2022/09/18 04:24:38;;;;;;;3.50;1.70;;;;;;;10.09;100.00;98905.47;4970923;28;20291;-82
2022/09/18 04:27:09;;;;;;;2.27;1.73;;;;;;;10.23;100.00;98905.41;4971695;28;20195;-81
2022/09/18 04:29:39;;;;;;;2.73;2.00;;;;;;;10.16;100.00;98901.47;4972329;28;20207;-82
2022/09/18 04:32:08;;;;;;;2.73;1.73;;;;;;;10.09;100.00;98901.03;4978585;28;20208;-82
2022/09/18 04:34:37;;;;;;;3.80;1.90;;;;;;;10.04;100.00;98903.97;4974603;28;20208;-81
2022/09/18 04:37:05;;;;;;;2.13;1.70;;;;;;;10.08;100.00;98914.34;4985397;28;20218;-81
2022/09/18 04:39:37;;;;;;;2.67;1.70;;;;;;;10.12;100.00;98914.03;5011134;28;20222;-81
2022/09/18 04:42:06;;;;;;;3.77;1.90;;;;;;;10.18;100.00;98907.50;5012165;28;20199;-81
2022/09/18 04:44:36;;;;;;;3.27;1.70;;;;;;;10.10;100.00;98912.44;5008566;28;20217;-81
2022/09/18 04:47:05;;;;;;;3.27;2.00;;;;;;;10.22;100.00;98911.66;5013001;28;20194;-81
2022/09/18 04:49:33;;;;;;;2.83;2.20;;;;;;;10.28;100.00;98909.47;5009979;28;20768;-81
2022/09/18 04:52:02;;;;;;;4.00;2.30;;;;;;;10.31;100.00;98922.47;5072237;28;20204;-82
2022/09/18 04:54:30;;;;;;;4.47;2.20;;;;;;;10.17;100.00;98919.88;5065763;28;20291;-82
2022/09/18 04:56:59;;;;;;;4.90;2.30;;;;;;;10.21;100.00;98920.53;5070931;28;20192;-82
2022/09/18 04:59:27;;;;;;;3.80;2.30;;;;;;;10.20;100.00;98918.81;5073156;28;20221;-81
2022/09/18 05:01:59;;;;;;;4.87;2.73;;;;;;;10.10;100.00;98905.34;5073267;28;20670;-81
2022/09/18 05:04:27;;;;;;;3.73;2.70;;;;;;;10.28;100.00;98903.31;5067444;28;20226;-82
2022/09/18 05:07:00;;;;;;;5.90;2.77;;;;;;;10.13;100.00;98896.38;5069853;28;20231;-81
2022/09/18 05:09:29;;;;;;;5.23;2.50;;;;;;;10.28;100.00;98895.38;5067666;28;20200;-81
2022/09/18 05:11:57;;;;;;;4.53;2.90;;;;;;;10.31;100.00;98903.97;5065328;28;20253;-81
2022/09/18 05:14:26;;;;;;;7.10;2.83;;;;;;;10.40;100.00;98904.28;5068300;28;20192;-82
2022/09/18 05:16:56;;;;;;;3.17;2.77;;;;;;;10.41;100.00;98906.84;5072056;28;20233;-82
2022/09/18 05:19:28;;;;;;;8.60;2.77;;;;;;;10.33;100.00;98906.53;5067872;28;20242;-82
2022/09/18 05:21:58;;;;;;;6.40;2.60;;;;;;;10.39;100.00;98900.81;5068659;28;20192;-81
2022/09/18 05:24:27;;;;;;;5.50;2.70;;;;;;;10.28;100.00;98912.13;5070798;28;20233;-81
2022/09/18 05:26:57;;;;;;;5.70;2.90;;;;;;;10.39;100.00;98908.75;5070800;28;20227;-82
2022/09/18 05:29:26;;;;;;;5.67;2.30;;;;;;;10.42;100.00;98899.72;5044161;28;20193;-81
2022/09/18 05:31:54;;;;;;;4.97;2.70;;;;;;;10.37;100.00;98907.16;5046995;28;20200;-81
2022/09/18 05:34:23;;;;;;;5.27;2.90;;;;;;;10.18;100.00;98899.56;5043469;28;20643;-81
2022/09/18 05:36:56;;;;;;;6.33;2.47;;;;;;;10.38;100.00;98900.91;5045535;28;20216;-82
2022/09/18 05:39:25;;;;;;;3.13;2.23;;;;;;;10.45;100.00;98904.84;5049823;28;20213;-82
2022/09/18 05:41:54;;;;;;;6.33;2.70;;;;;;;10.40;100.00;98910.44;5043362;28;20228;-82
2022/09/18 05:44:23;;;;;;;8.63;3.07;;;;;;;10.36;100.00;98906.31;5011168;28;20202;-81
2022/09/18 05:46:52;;;;;;;8.37;2.40;;;;;;;10.30;100.00;98902.25;4949393;28;20208;-81
2022/09/18 05:49:21;;;;;;;6.73;2.53;;;;;;;10.35;100.00;98901.97;4949223;28;20236;-81
2022/09/18 05:51:49;;;;;;;5.50;2.47;;;;;;;10.38;100.00;98901.75;4948705;28;20204;-82
2022/09/18 05:54:19;;;;;;;6.40;2.30;;;;;;;10.38;100.00;98906.19;4949969;28;20200;-82
2022/09/18 05:56:48;;;;;;;6.33;2.80;;;;;;;10.35;100.00;98901.97;4950113;28;20204;-81
2022/09/18 05:59:16;;;;;;;4.80;2.40;;;;;;;10.47;100.00;98895.84;4950131;28;20687;-82
2022/09/18 06:01:45;;;;;;;6.57;2.37;;;;;;;10.52;100.00;98898.19;4991440;28;20190;-81
2022/09/18 06:04:15;;;;;;;5.27;2.60;;;;;;;10.51;100.00;98904.41;5032669;28;20188;-82
2022/09/18 06:06:45;;;;;;;4.73;2.17;;;;;;;10.58;100.00;98906.53;5039090;28;20195;-82
2022/09/18 06:09:15;;;;;;;4.07;2.00;;;;;;;10.47;100.00;98905.59;5075838;28;20218;-81
2022/09/18 06:11:45;;;;;;;4.40;1.93;;;;;;;10.49;100.00;98901.88;5079836;28;20196;-82
2022/09/18 06:14:13;;;;;;;6.97;2.13;;;;;;;10.64;100.00;98915.03;5074694;28;20234;-81
2022/09/18 06:16:42;;;;;;;6.60;2.17;;;;;;;10.65;100.00;98906.13;5076559;28;20275;-81
2022/09/18 06:19:10;;;;;;;3.97;2.23;;;;;;;10.73;100.00;98911.75;5069422;28;20207;-81
2022/09/18 06:21:42;;;;;;;5.20;1.93;;;;;;;10.79;100.00;98900.72;5077496;28;20247;-82
2022/09/18 06:24:10;;;;;;;4.93;2.00;;;;;;;10.72;100.00;98902.13;5069059;28;20210;-81
2022/09/18 06:26:38;;;;;;;5.13;2.17;;;;;;;10.66;100.00;98907.84;5069306;28;20195;-81
2022/09/18 06:29:08;;;;;;;3.63;1.87;;;;;;;10.83;100.00;98903.06;5070923;28;20705;-82
2022/09/18 06:31:36;;;;;;;5.20;1.80;;;;;;;10.85;100.00;98901.16;5072970;28;20188;-82
2022/09/18 06:34:05;;;;;;;5.67;2.10;;;;;;;11.04;100.00;98899.88;5066353;28;20291;-81
2022/09/18 06:36:35;;;;;;;4.17;1.80;;;;;;;11.00;100.00;98895.72;5070153;28;20196;-81
2022/09/18 06:39:04;;;;;;;7.23;1.90;;;;;;;11.04;100.00;98898.06;5074118;28;20188;-82
2022/09/18 06:41:33;;;;;;;4.23;1.90;;;;;;;10.96;100.00;98905.72;5073462;28;20289;-82
2022/09/18 06:44:04;;;;;;;5.23;2.07;;;;;;;11.08;100.00;98894.25;5074158;28;20191;-81
2022/09/18 06:46:34;;;;;;;5.63;1.90;;;;;;;11.18;100.00;98900.59;5076396;28;20234;-81
2022/09/18 06:49:02;;;;;;;5.07;1.63;;;;;;;11.24;100.00;98894.03;5068244;28;20224;-81
2022/09/18 06:51:31;;;;;;;2.77;1.57;;;;;;;11.20;100.00;98897.88;5071699;28;20679;-81
2022/09/18 06:53:59;;;;;;;3.47;1.50;;;;;;;11.04;100.00;98900.72;5074903;28;20188;-81
2022/09/18 06:56:28;;;;;;;9.07;4.83;;;;;;;11.04;100.00;98889.28;5070940;28;20200;-81
2022/09/18 06:59:03;;;;;;;5.03;2.40;;;;;;;11.12;100.00;98902.84;5074007;28;20232;-82
2022/09/18 07:01:33;;;;;;;5.17;2.10;;;;;;;10.98;100.00;98895.00;5074402;28;20212;-82
2022/09/18 07:04:03;;;;;;;6.27;1.80;;;;;;;10.89;100.00;98905.28;5071577;28;20223;-81
2022/09/18 07:06:32;;;;;;;3.87;1.50;;;;;;;11.10;100.00;98895.00;5069184;28;20193;-81
2022/09/18 07:09:01;;;;;;;7.37;1.93;;;;;;;11.16;100.00;98886.59;5068263;28;20227;-82
2022/09/18 07:11:29;;;;;;;5.70;1.50;;;;;;;11.27;100.00;98879.69;5074109;28;20203;-81
2022/09/18 07:13:58;;;;;;;6.03;1.60;;;;;;;11.04;100.00;98884.81;5048265;28;20190;-81
2022/09/18 07:16:26;;;;;;;3.03;1.83;;;;;;;11.09;100.00;98890.63;5044753;28;20189;-81
2022/09/18 07:18:59;;;;;;;3.07;1.70;;;;;;;11.06;100.00;98882.91;5044842;28;20229;-81
2022/09/18 07:21:27;;;;;;;3.37;1.50;;;;;;;11.23;100.00;98881.72;5036154;28;20216;-81
2022/09/18 07:23:56;;;;;;;5.40;2.10;;;;;;;11.26;100.00;98883.31;5052722;28;20702;-82
2022/09/18 07:26:24;;;;;;;2.47;1.00;;;;;;;11.38;100.00;98885.91;5053456;28;20209;-82
2022/09/18 07:28:53;;;;;;;3.97;1.53;;;;;;;11.42;100.00;98892.72;4989007;28;20254;-81
2022/09/18 07:31:23;;;;;;;4.97;2.30;;;;;;;11.52;100.00;98895.56;5000258;28;20194;-82
2022/09/18 07:33:54;;;;;;;3.60;1.80;;;;;;;11.50;100.00;98900.13;5027438;28;20295;-82
2022/09/18 07:36:25;;;;;;;5.53;2.17;;;;;;;11.43;100.00;98897.06;5031200;28;20221;-82
2022/09/18 07:38:53;;;;;;;2.63;1.60;;;;;;;11.37;100.00;98907.25;5027429;28;20198;-82
2022/09/18 07:41:28;;;;;;;2.83;1.60;;;;;;;11.49;100.00;98897.59;5030555;28;20350;-82
2022/09/18 07:43:56;;;;;;;6.77;3.13;;;;;;;11.44;100.00;98887.28;5033431;28;20220;-81
2022/09/18 07:46:25;;;;;;;4.03;1.83;;;;;;;11.36;100.00;98903.75;5039400;28;20192;-82
2022/09/18 07:48:53;;;;;;;3.27;1.40;;;;;;;11.50;100.00;98892.16;5075214;28;20229;-82
2022/09/18 07:51:22;;;;;;;1.73;1.20;;;;;;;11.51;100.00;98887.72;5075044;28;20212;-82
2022/09/18 07:53:55;;;;;;;4.43;1.80;;;;;;;11.56;100.00;98885.56;5077389;28;20196;-82
2022/09/18 07:56:25;;;;;;;4.23;1.60;;;;;;;11.66;100.00;98886.59;5067196;28;20196;-83
2022/09/18 07:58:54;;;;;;;4.53;1.70;;;;;;;11.78;100.00;98883.06;5070495;28;20188;-82
2022/09/18 08:01:24;;;;;;;4.10;1.10;;;;;;;11.83;100.00;98878.28;5068605;28;20220;-83
2022/09/18 08:03:52;;;;;;;3.30;1.50;;;;;;;11.71;100.00;98877.34;5072951;28;20627;-82
2022/09/18 08:06:21;;;;;;;1.63;1.20;;;;;;;11.73;100.00;98877.22;5052981;28;20185;-83
2022/09/18 08:08:49;;;;;;;2.70;1.00;;;;;;;11.82;100.00;98886.34;5052968;28;20251;-82
2022/09/18 08:11:23;;;;;;;5.33;1.80;;;;;;;11.87;100.00;98892.16;5076024;28;20192;-83
2022/09/18 08:13:52;;;;;;;3.17;1.20;;;;;;;11.82;100.00;98886.34;5074205;28;20203;-83
2022/09/18 08:16:20;;;;;;;4.27;1.40;;;;;;;11.82;100.00;98876.59;5066691;28;20326;-82
2022/09/18 08:18:49;;;;;;;2.40;1.43;;;;;;;11.90;100.00;98871.56;5076105;28;20336;-82
2022/09/18 08:21:18;;;;;;;5.13;1.57;;;;;;;11.83;100.00;98869.47;5094144;28;20212;-81
2022/09/18 08:23:47;;;;;;;2.60;1.40;;;;;;;11.75;100.00;98881.44;5082871;28;20227;-82
2022/09/18 08:26:15;;;;;;;3.97;1.70;;;;;;;11.90;100.00;98886.63;5075037;28;20322;-82
2022/09/18 08:28:52;;;;;;;2.60;1.70;;;;;;;12.09;100.00;98881.66;5069615;28;20220;-81
2022/09/18 08:31:20;;;;;;;3.30;1.60;;;;;;;11.92;100.00;98880.25;5074426;28;20196;-81
2022/09/18 08:33:48;;;;;;;1.47;1.10;;;;;;;11.80;100.00;98878.50;5028666;28;20248;-82
2022/09/18 08:36:17;;;;;;;2.77;1.27;;;;;;;11.97;100.00;98882.56;5027627;28;20245;-81
2022/09/18 08:38:45;;;;;;;2.63;1.57;;;;;;;12.04;100.00;98874.03;5028517;28;20237;-82
2022/09/18 08:41:39;;;;;;;5.20;1.43;;;;;;;12.28;100.00;98879.31;5030124;28;20217;-82
2022/09/18 08:44:14;;;;;;;3.47;1.33;;;;;;;12.37;100.00;98879.59;5032382;28;20660;-81
2022/09/18 08:46:51;;;;;;;2.70;1.10;;;;;;;12.64;100.00;98876.59;5030478;28;20204;-82
2022/09/18 08:49:26;;;;;;;3.37;1.10;;;;;;;12.15;100.00;98881.19;5022211;28;20233;-82
2022/09/18 08:52:02;;;;;;;4.40;1.40;;;;;;;11.87;100.00;98873.56;5038536;28;20239;-82
2022/09/18 08:54:42;;;;;;;1.37;1.00;;;;;;;11.88;100.00;98877.94;5050674;28;20670;-83
2022/09/18 08:57:16;;;;;;;4.40;1.20;;;;;;;12.18;100.00;98869.50;5051622;28;20193;-82
2022/09/18 08:59:52;;;;;;;3.33;1.00;;;;;;;12.32;100.00;98875.44;5043636;28;20246;-82
2022/09/18 09:02:37;;;;;;;2.53;1.03;;;;;;;12.35;100.00;98876.19;5047478;28;20250;-82
2022/09/18 09:05:11;;;;;;;1.97;1.00;;;;;;;12.54;100.00;98876.47;5059800;28;20200;-81
2022/09/18 09:08:03;;;;;;;3.37;1.00;;;;;;;12.27;100.00;98874.97;5071985;28;20201;-81
2022/09/18 09:10:40;;;;;;;4.70;1.30;;;;;;;12.32;100.00;98877.25;5038529;28;20200;-81
2022/09/18 09:13:36;;;;;;;1.30;0.93;;;;;;;12.50;100.00;98873.22;5075797;28;20383;-81
2022/09/18 09:16:16;;;;;;;2.03;1.33;;;;;;;12.54;100.00;98872.00;5072339;28;20207;-81
2022/09/18 09:18:57;;;;;;;2.17;1.23;;;;;;;12.51;100.00;98868.75;5070116;28;20238;-82
2022/09/18 09:21:44;;;;;;;1.77;1.00;;;;;;;12.73;100.00;98863.47;5066143;28;20299;-81
2022/09/18 09:24:28;;;;;;;1.23;0.93;;;;;;;12.50;100.00;98853.78;5073815;28;20287;-81
2022/09/18 09:26:57;;;;;;;2.50;0.90;;;;;;;12.39;100.00;98862.56;5067099;28;20196;-81
2022/09/18 09:29:30;;;;;;;4.30;1.07;;;;;;;12.36;100.00;98857.50;5073250;28;20196;-81
2022/09/18 09:32:06;;;;;;;3.13;1.10;;;;;;;12.02;100.00;98853.88;5070703;28;20196;-81
2022/09/18 09:34:43;;;;;;;3.60;1.00;;;;;;;12.33;100.00;98857.72;5068883;28;20211;-81
2022/09/18 09:37:17;;;;;;;2.07;0.90;;;;;;;12.59;100.00;98861.88;5068572;28;20245;-82
2022/09/18 09:39:50;;;;;;;2.03;1.10;;;;;;;12.41;100.00;98870.41;5071126;28;20673;-81
2022/09/18 09:42:26;;;;;;;2.00;0.87;;;;;;;12.15;100.00;98865.25;5064490;28;20262;-81
2022/09/18 09:44:59;;;;;;;1.10;0.90;;;;;;;12.24;100.00;98863.72;5063950;28;20196;-82
2022/09/18 09:47:37;;;;;;;2.00;0.87;;;;;;;12.03;100.00;98871.50;5051425;28;20204;-81
2022/09/18 09:50:18;;;;;;;2.13;1.10;;;;;;;12.10;100.00;98870.06;5071449;28;20220;-81
2022/09/18 09:52:58;;;;;;;2.17;1.30;;;;;;;11.89;100.00;98872.53;5067365;28;20196;-81
2022/09/18 09:55:30;;;;;;;1.20;0.90;;;;;;;11.96;100.00;98881.69;5053628;28;20188;-82
2022/09/18 09:58:12;;;;;;;1.70;1.07;;;;;;;11.98;100.00;98878.97;5051488;28;20196;-81
2022/09/18 10:00:48;;;;;;;2.43;1.10;;;;;;;11.82;100.00;98873.94;5068260;28;20196;-81
2022/09/18 10:03:33;;;;;;;4.17;1.43;;;;;;;11.84;100.00;98889.72;5068140;28;20226;-81
2022/09/18 10:06:11;;;;;;;2.03;1.40;;;;;;;11.61;100.00;98902.84;5071833;28;20674;-82
2022/09/18 10:08:45;;;;;;;3.70;1.27;;;;;;;11.44;100.00;98900.56;5069985;28;20268;-84
2022/09/18 10:11:15;;;;;;;2.37;1.23;;;;;;;11.44;100.00;98914.66;5070475;28;20191;-83
2022/09/18 10:13:50;;;;;;;4.93;1.40;;;;;;;11.29;100.00;98914.88;5070303;28;20203;-84
2022/09/18 10:16:23;;;;;;;6.57;1.33;;;;;;;11.27;100.00;98924.75;5072252;28;20191;-83
2022/09/18 10:18:54;;;;;;;2.60;1.43;;;;;;;11.24;100.00;98911.72;5066694;28;20313;-84
2022/09/18 10:21:27;;;;;;;2.30;1.50;;;;;;;11.36;100.00;98914.34;5032280;28;20197;-84
2022/09/18 10:24:01;;;;;;;2.73;1.20;;;;;;;11.37;100.00;98908.09;5026370;28;20217;-83
2022/09/18 10:26:35;;;;;;;1.90;1.10;;;;;;;11.44;100.00;98898.75;5025693;28;20208;-84
2022/09/18 10:29:03;;;;;;;1.40;1.30;;;;;;;11.60;100.00;98901.16;5029840;28;20217;-83
2022/09/18 10:31:47;;;;;;;1.93;1.03;;;;;;;11.75;100.00;98905.31;5029916;28;20350;-84
2022/09/18 10:34:39;;;;;;;1.83;1.40;;;;;;;11.66;100.00;98902.50;5025624;28;20235;-84
2022/09/18 10:37:16;;;;;;;1.83;1.50;;;;;;;11.75;100.00;98894.72;5022232;28;20292;-84
2022/09/18 10:39:50;;;;;;;1.77;1.27;;;;;;;11.97;100.00;98904.66;5053840;28;20231;-83
2022/09/18 10:42:23;;;;;;;3.57;1.40;;;;;;;12.13;100.00;98899.03;5071379;28;20285;-83
2022/09/18 10:44:57;;;;;;;3.00;1.33;;;;;;;12.15;100.00;98896.25;5071933;28;20228;-82
2022/09/18 10:47:32;;;;;;;2.33;1.30;;;;;;;11.98;100.00;98890.41;5072616;28;20286;-83
2022/09/18 10:50:16;;;;;;;1.93;1.07;;;;;;;12.17;100.00;98897.03;5037070;28;20252;-82
2022/09/18 10:52:47;;;;;;;2.03;1.30;;;;;;;11.99;100.00;98888.63;5071083;28;20200;-84
2022/09/18 10:55:20;;;;;;;1.20;1.00;;;;;;;12.35;100.00;98874.38;5069720;28;20223;-82
2022/09/18 10:58:04;;;;;;;3.13;1.20;;;;;;;12.30;100.00;98869.41;5078385;28;20250;-84
2022/09/18 11:00:38;;;;;;;2.00;1.20;;;;;;;12.38;100.00;98875.97;5071547;28;20204;-82
2022/09/18 11:03:23;;;;;;;3.80;1.27;;;;;;;12.35;100.00;98877.03;5066508;28;20220;-82
2022/09/18 11:06:01;;;;;;;2.93;1.67;;;;;;;12.36;100.00;98875.25;5077564;28;20203;-82
2022/09/18 11:08:36;;;;;;;3.13;1.43;;;;;;;12.43;100.00;98873.78;5076220;28;20227;-82
2022/09/18 11:11:11;;;;;;;2.97;1.40;;;;;;;12.49;100.00;98865.38;5076675;28;20235;-82
2022/09/18 11:13:49;;;;;;;2.30;1.30;;;;;;;12.48;100.00;98863.69;5073938;28;20195;-84
2022/09/18 11:16:24;;;;;;;3.00;1.10;;;;;;;12.19;100.00;98865.88;5073351;28;20200;-83
2022/09/18 11:19:14;;;;;;;1.00;1.00;;;;;;;12.20;100.00;98860.44;5044956;28;20261;-82
2022/09/18 11:21:53;;;;;;;2.27;1.00;;;;;;;12.08;100.00;98850.75;5046925;28;20217;-82
2022/09/18 11:24:30;;;;;;;2.30;1.13;;;;;;;12.24;100.00;98856.59;5051841;28;20243;-82
2022/09/18 11:27:01;;;;;;;2.10;1.20;;;;;;;12.31;100.00;98860.47;5017772;28;20185;-82
2022/09/18 11:29:33;;;;;;;2.73;1.20;;;;;;;12.46;100.00;98860.28;5050039;28;20199;-82
2022/09/18 11:32:12;;;;;;;3.23;1.20;;;;;;;12.71;100.00;98851.25;5048213;28;20208;-82
2022/09/18 11:34:47;;;;;;;3.23;2.10;;;;;;;12.73;100.00;98844.00;5053222;28;20196;-82
2022/09/18 11:37:33;;;;;;;3.87;1.47;;;;;;;12.40;100.00;98852.78;5064728;28;20282;-82
2022/09/18 11:40:07;;;;;;;3.27;2.87;;;;;;;12.44;100.00;98839.13;5091396;28;20397;-82
2022/09/18 11:42:43;;;;;;;5.53;5.07;;;;;;;12.28;100.00;98836.81;5089860;28;20259;-82
2022/09/18 11:45:28;;;;;;;5.90;2.33;;;;;;;12.41;100.00;98842.03;5087046;28;20204;-82
2022/09/18 11:48:05;;;;;;;3.13;2.47;;;;;;;12.11;100.00;98826.63;5009968;28;20194;-82
2022/09/18 11:50:37;;;;;;;4.37;2.83;;;;;;;12.17;100.00;98838.59;5004322;28;20226;-83
2022/09/18 11:53:18;;;;;;;3.70;2.00;;;;;;;12.26;100.00;98845.88;5006100;28;20201;-82